Terminal Aerodrome Forecast
Issued by NWS

Current Version | Previous Version | Text Only | Print | Product List | Glossary On
Versions: 1 2 3 4 5 6 7 8 9 10 11 12 13 14 15 16 17 18 19 20 21 22 23 24 25 26 27 28 29 30 31 32 33 34 35 36 37
000
FTUS41 KGYX 242320
TAFMHT
TAF
KMHT 242320Z 2500/2524 23010KT P6SM SCT100 BKN250
     FM250200 20005KT P6SM SCT100 BKN250
     FM251200 24006KT P6SM SCT060 BKN100
     FM251600 21006KT P6SM -SHRA BKN050 OVC080=

USA.gov is the U.S. government's official web portal to all federal, state and local government web resources and services.